sensor_id;sensor_type;location;lat;lon;timestamp;P1;durP1;ratioP1;P2;durP2;ratioP2
68577;SDS011;61668;45.388;11.784;2022-09-16T00:00:00;11.80;;;2.30;;
68577;SDS011;61668;45.388;11.784;2022-09-16T00:02:26;15.30;;;2.90;;
68577;SDS011;61668;45.388;11.784;2022-09-16T00:04:51;12.60;;;3.10;;
68577;SDS011;61668;45.388;11.784;2022-09-16T00:07:18;11.30;;;3.10;;
68577;SDS011;61668;45.388;11.784;2022-09-16T00:09:44;16.00;;;3.60;;
68577;SDS011;61668;45.388;11.784;2022-09-16T00:12:10;11.90;;;3.10;;
68577;SDS011;61668;45.388;11.784;2022-09-16T00:14:35;15.70;;;3.70;;
68577;SDS011;61668;45.388;11.784;2022-09-16T00:17:01;14.80;;;4.20;;
68577;SDS011;61668;45.388;11.784;2022-09-16T00:19:26;11.50;;;3.20;;
68577;SDS011;61668;45.388;11.784;2022-09-16T00:21:51;12.10;;;3.80;;
68577;SDS011;61668;45.388;11.784;2022-09-16T00:24:17;11.30;;;3.80;;
68577;SDS011;61668;45.388;11.784;2022-09-16T00:26:42;12.70;;;3.70;;
68577;SDS011;61668;45.388;11.784;2022-09-16T00:29:08;13.50;;;4.00;;
68577;SDS011;61668;45.388;11.784;2022-09-16T00:31:34;11.80;;;3.70;;
68577;SDS011;61668;45.388;11.784;2022-09-16T00:34:00;12.00;;;3.30;;
68577;SDS011;61668;45.388;11.784;2022-09-16T00:36:26;14.00;;;4.60;;
68577;SDS011;61668;45.388;11.784;2022-09-16T00:38:53;12.30;;;4.10;;
68577;SDS011;61668;45.388;11.784;2022-09-16T00:41:27;15.70;;;4.80;;
68577;SDS011;61668;45.388;11.784;2022-09-16T00:47:36;13.90;;;4.10;;
68577;SDS011;61668;45.388;11.784;2022-09-16T00:50:09;11.00;;;4.30;;
68577;SDS011;61668;45.388;11.784;2022-09-16T00:52:39;13.60;;;3.80;;
68577;SDS011;61668;45.388;11.784;2022-09-16T00:55:08;14.40;;;3.70;;
68577;SDS011;61668;45.388;11.784;2022-09-16T00:57:35;16.80;;;4.20;;
68577;SDS011;61668;45.388;11.784;2022-09-16T01:00:04;13.00;;;4.30;;
68577;SDS011;61668;45.388;11.784;2022-09-16T01:02:33;11.80;;;3.60;;
68577;SDS011;61668;45.388;11.784;2022-09-16T01:05:03;12.00;;;4.10;;
68577;SDS011;61668;45.388;11.784;2022-09-16T01:07:48;13.50;;;3.20;;
68577;SDS011;61668;45.388;11.784;2022-09-16T01:10:22;12.30;;;4.30;;
68577;SDS011;61668;45.388;11.784;2022-09-16T01:12:56;12.50;;;4.20;;
68577;SDS011;61668;45.388;11.784;2022-09-16T01:15:57;14.40;;;4.00;;
68577;SDS011;61668;45.388;11.784;2022-09-16T01:47:35;15.80;;;5.30;;
68577;SDS011;61668;45.388;11.784;2022-09-16T01:50:31;14.10;;;5.80;;
68577;SDS011;61668;45.388;11.784;2022-09-16T01:53:20;15.20;;;6.70;;
68577;SDS011;61668;45.388;11.784;2022-09-16T01:56:08;13.80;;;5.80;;
68577;SDS011;61668;45.388;11.784;2022-09-16T01:58:50;13.40;;;5.30;;
68577;SDS011;61668;45.388;11.784;2022-09-16T02:04:31;13.30;;;6.40;;
68577;SDS011;61668;45.388;11.784;2022-09-16T02:07:07;14.50;;;5.70;;
68577;SDS011;61668;45.388;11.784;2022-09-16T02:09:39;16.10;;;5.10;;
68577;SDS011;61668;45.388;11.784;2022-09-16T02:12:10;13.00;;;5.70;;
68577;SDS011;61668;45.388;11.784;2022-09-16T02:14:42;15.40;;;6.30;;
68577;SDS011;61668;45.388;11.784;2022-09-16T02:17:10;15.30;;;6.10;;
68577;SDS011;61668;45.388;11.784;2022-09-16T02:19:54;15.70;;;6.20;;
68577;SDS011;61668;45.388;11.784;2022-09-16T02:22:28;15.30;;;6.10;;
68577;SDS011;61668;45.388;11.784;2022-09-16T02:24:58;16.70;;;6.70;;
68577;SDS011;61668;45.388;11.784;2022-09-16T02:27:26;12.90;;;6.30;;
68577;SDS011;61668;45.388;11.784;2022-09-16T02:30:02;18.50;;;7.10;;
68577;SDS011;61668;45.388;11.784;2022-09-16T02:32:33;15.80;;;5.70;;
68577;SDS011;61668;45.388;11.784;2022-09-16T02:35:01;13.60;;;6.10;;
68577;SDS011;61668;45.388;11.784;2022-09-16T02:37:56;15.30;;;6.30;;
68577;SDS011;61668;45.388;11.784;2022-09-16T02:40:31;15.00;;;6.20;;
68577;SDS011;61668;45.388;11.784;2022-09-16T02:42:59;14.60;;;6.00;;
68577;SDS011;61668;45.388;11.784;2022-09-16T02:45:44;13.70;;;6.10;;
68577;SDS011;61668;45.388;11.784;2022-09-16T02:50:59;12.70;;;5.90;;
68577;SDS011;61668;45.388;11.784;2022-09-16T02:53:42;13.90;;;6.50;;
68577;SDS011;61668;45.388;11.784;2022-09-16T02:56:28;12.60;;;5.70;;
68577;SDS011;61668;45.388;11.784;2022-09-16T02:58:56;14.20;;;5.70;;
68577;SDS011;61668;45.388;11.784;2022-09-16T03:01:22;13.80;;;5.80;;
68577;SDS011;61668;45.388;11.784;2022-09-16T03:03:49;16.10;;;6.30;;
68577;SDS011;61668;45.388;11.784;2022-09-16T03:06:23;12.10;;;6.70;;
68577;SDS011;61668;45.388;11.784;2022-09-16T03:08:52;14.00;;;5.50;;
68577;SDS011;61668;45.388;11.784;2022-09-16T03:20:14;12.70;;;5.30;;
68577;SDS011;61668;45.388;11.784;2022-09-16T03:37:09;17.60;;;6.70;;
68577;SDS011;61668;45.388;11.784;2022-09-16T03:39:37;13.70;;;6.20;;
68577;SDS011;61668;45.388;11.784;2022-09-16T03:42:05;14.10;;;6.60;;
68577;SDS011;61668;45.388;11.784;2022-09-16T03:44:33;12.30;;;5.60;;
68577;SDS011;61668;45.388;11.784;2022-09-16T03:47:01;12.90;;;6.00;;
68577;SDS011;61668;45.388;11.784;2022-09-16T03:49:28;15.20;;;6.20;;
68577;SDS011;61668;45.388;11.784;2022-09-16T03:51:55;15.20;;;6.40;;
68577;SDS011;61668;45.388;11.784;2022-09-16T03:54:21;16.00;;;6.30;;
68577;SDS011;61668;45.388;11.784;2022-09-16T03:56:47;14.60;;;6.10;;
68577;SDS011;61668;45.388;11.784;2022-09-16T03:59:13;17.70;;;6.20;;
68577;SDS011;61668;45.388;11.784;2022-09-16T04:01:38;12.00;;;5.70;;
68577;SDS011;61668;45.388;11.784;2022-09-16T04:04:04;13.70;;;5.50;;
68577;SDS011;61668;45.388;11.784;2022-09-16T04:06:30;15.90;;;6.00;;
68577;SDS011;61668;45.388;11.784;2022-09-16T04:08:55;15.10;;;5.00;;
68577;SDS011;61668;45.388;11.784;2022-09-16T04:11:25;16.10;;;5.90;;
68577;SDS011;61668;45.388;11.784;2022-09-16T04:13:54;14.20;;;6.00;;
68577;SDS011;61668;45.388;11.784;2022-09-16T04:16:20;17.50;;;5.80;;
68577;SDS011;61668;45.388;11.784;2022-09-16T04:18:47;13.70;;;5.00;;
68577;SDS011;61668;45.388;11.784;2022-09-16T04:21:13;15.20;;;6.20;;
68577;SDS011;61668;45.388;11.784;2022-09-16T04:23:39;13.80;;;5.70;;
68577;SDS011;61668;45.388;11.784;2022-09-16T04:26:05;13.00;;;5.80;;
68577;SDS011;61668;45.388;11.784;2022-09-16T04:28:32;15.40;;;6.50;;
68577;SDS011;61668;45.388;11.784;2022-09-16T04:31:02;13.00;;;5.60;;
68577;SDS011;61668;45.388;11.784;2022-09-16T04:33:31;14.80;;;6.70;;
68577;SDS011;61668;45.388;11.784;2022-09-16T04:38:36;14.00;;;7.00;;
68577;SDS011;61668;45.388;11.784;2022-09-16T04:41:06;19.80;;;7.90;;
68577;SDS011;61668;45.388;11.784;2022-09-16T04:43:34;18.70;;;7.50;;
68577;SDS011;61668;45.388;11.784;2022-09-16T04:45:59;15.10;;;6.60;;
68577;SDS011;61668;45.388;11.784;2022-09-16T04:48:25;14.90;;;6.50;;
68577;SDS011;61668;45.388;11.784;2022-09-16T04:50:52;15.80;;;6.20;;
68577;SDS011;61668;45.388;11.784;2022-09-16T04:53:18;13.80;;;7.00;;
68577;SDS011;61668;45.388;11.784;2022-09-16T04:55:45;12.90;;;5.80;;
68577;SDS011;61668;45.388;11.784;2022-09-16T04:58:12;12.20;;;5.50;;
68577;SDS011;61668;45.388;11.784;2022-09-16T05:00:38;14.70;;;6.20;;
68577;SDS011;61668;45.388;11.784;2022-09-16T05:03:03;13.50;;;6.00;;
68577;SDS011;61668;45.388;11.784;2022-09-16T05:05:29;13.40;;;5.80;;
68577;SDS011;61668;45.388;11.784;2022-09-16T05:07:54;13.70;;;5.20;;
68577;SDS011;61668;45.388;11.784;2022-09-16T05:10:20;12.90;;;5.70;;
68577;SDS011;61668;45.388;11.784;2022-09-16T05:12:52;13.50;;;4.80;;
68577;SDS011;61668;45.388;11.784;2022-09-16T05:15:18;13.80;;;4.50;;
68577;SDS011;61668;45.388;11.784;2022-09-16T05:17:44;12.60;;;4.20;;
68577;SDS011;61668;45.388;11.784;2022-09-16T05:20:10;13.70;;;4.60;;
68577;SDS011;61668;45.388;11.784;2022-09-16T05:22:36;14.60;;;4.80;;
68577;SDS011;61668;45.388;11.784;2022-09-16T05:25:02;14.40;;;5.20;;
68577;SDS011;61668;45.388;11.784;2022-09-16T05:27:32;11.00;;;5.00;;
68577;SDS011;61668;45.388;11.784;2022-09-16T05:29:58;11.10;;;4.80;;
68577;SDS011;61668;45.388;11.784;2022-09-16T05:32:23;13.50;;;5.60;;
68577;SDS011;61668;45.388;11.784;2022-09-16T05:34:49;11.80;;;5.00;;
68577;SDS011;61668;45.388;11.784;2022-09-16T05:37:15;12.50;;;4.90;;
68577;SDS011;61668;45.388;11.784;2022-09-16T05:39:41;11.60;;;5.80;;
68577;SDS011;61668;45.388;11.784;2022-09-16T05:42:08;14.20;;;5.30;;
68577;SDS011;61668;45.388;11.784;2022-09-16T05:44:34;13.90;;;5.50;;
68577;SDS011;61668;45.388;11.784;2022-09-16T05:47:01;11.70;;;5.20;;
68577;SDS011;61668;45.388;11.784;2022-09-16T05:49:28;12.00;;;5.10;;
68577;SDS011;61668;45.388;11.784;2022-09-16T05:51:53;12.30;;;4.50;;
68577;SDS011;61668;45.388;11.784;2022-09-16T05:54:20;13.60;;;5.00;;
68577;SDS011;61668;45.388;11.784;2022-09-16T05:56:48;13.30;;;4.60;;
68577;SDS011;61668;45.388;11.784;2022-09-16T05:59:14;11.90;;;3.40;;
68577;SDS011;61668;45.388;11.784;2022-09-16T06:01:41;11.90;;;4.10;;
68577;SDS011;61668;45.388;11.784;2022-09-16T06:04:10;14.20;;;3.90;;
68577;SDS011;61668;45.388;11.784;2022-09-16T06:06:41;11.70;;;3.30;;
68577;SDS011;61668;45.388;11.784;2022-09-16T06:09:17;11.70;;;3.90;;
68577;SDS011;61668;45.388;11.784;2022-09-16T06:11:49;11.60;;;3.30;;
68577;SDS011;61668;45.388;11.784;2022-09-16T06:14:17;10.80;;;3.80;;
68577;SDS011;61668;45.388;11.784;2022-09-16T06:16:44;12.80;;;4.10;;
68577;SDS011;61668;45.388;11.784;2022-09-16T06:19:12;13.70;;;3.80;;
68577;SDS011;61668;45.388;11.784;2022-09-16T06:21:40;12.10;;;3.10;;
68577;SDS011;61668;45.388;11.784;2022-09-16T06:24:07;11.10;;;3.80;;
68577;SDS011;61668;45.388;11.784;2022-09-16T06:26:36;10.60;;;2.90;;
68577;SDS011;61668;45.388;11.784;2022-09-16T06:29:03;9.00;;;2.70;;
68577;SDS011;61668;45.388;11.784;2022-09-16T06:31:33;14.00;;;2.80;;
68577;SDS011;61668;45.388;11.784;2022-09-16T06:34:00;10.10;;;2.80;;
68577;SDS011;61668;45.388;11.784;2022-09-16T06:36:29;8.40;;;2.60;;
68577;SDS011;61668;45.388;11.784;2022-09-16T06:38:56;11.60;;;3.20;;
68577;SDS011;61668;45.388;11.784;2022-09-16T06:41:22;9.40;;;2.30;;
68577;SDS011;61668;45.388;11.784;2022-09-16T06:43:49;8.80;;;1.80;;
68577;SDS011;61668;45.388;11.784;2022-09-16T06:46:23;10.60;;;2.10;;
68577;SDS011;61668;45.388;11.784;2022-09-16T06:48:51;8.70;;;1.70;;
68577;SDS011;61668;45.388;11.784;2022-09-16T06:51:20;12.30;;;2.50;;
68577;SDS011;61668;45.388;11.784;2022-09-16T06:53:48;9.30;;;2.30;;
68577;SDS011;61668;45.388;11.784;2022-09-16T06:56:17;9.80;;;1.50;;
68577;SDS011;61668;45.388;11.784;2022-09-16T06:58:46;10.20;;;2.50;;
68577;SDS011;61668;45.388;11.784;2022-09-16T07:01:17;9.90;;;2.10;;
68577;SDS011;61668;45.388;11.784;2022-09-16T07:03:46;11.60;;;2.00;;
68577;SDS011;61668;45.388;11.784;2022-09-16T07:06:14;9.80;;;2.20;;
68577;SDS011;61668;45.388;11.784;2022-09-16T07:08:42;12.40;;;1.90;;
68577;SDS011;61668;45.388;11.784;2022-09-16T07:11:19;8.20;;;2.00;;
68577;SDS011;61668;45.388;11.784;2022-09-16T07:13:46;10.80;;;2.30;;
68577;SDS011;61668;45.388;11.784;2022-09-16T07:16:14;8.70;;;1.50;;
68577;SDS011;61668;45.388;11.784;2022-09-16T07:18:44;7.20;;;1.40;;
68577;SDS011;61668;45.388;11.784;2022-09-16T07:21:18;11.30;;;1.60;;
68577;SDS011;61668;45.388;11.784;2022-09-16T07:23:45;9.10;;;1.70;;
68577;SDS011;61668;45.388;11.784;2022-09-16T07:26:21;12.80;;;1.60;;
68577;SDS011;61668;45.388;11.784;2022-09-16T07:28:50;9.70;;;1.50;;
68577;SDS011;61668;45.388;11.784;2022-09-16T07:31:24;9.90;;;1.50;;
68577;SDS011;61668;45.388;11.784;2022-09-16T07:33:52;9.70;;;1.20;;
68577;SDS011;61668;45.388;11.784;2022-09-16T07:36:23;9.30;;;1.30;;
68577;SDS011;61668;45.388;11.784;2022-09-16T07:38:50;7.30;;;1.30;;
68577;SDS011;61668;45.388;11.784;2022-09-16T07:41:21;8.90;;;2.00;;
68577;SDS011;61668;45.388;11.784;2022-09-16T07:43:48;9.00;;;1.60;;
68577;SDS011;61668;45.388;11.784;2022-09-16T07:46:17;10.80;;;1.50;;
68577;SDS011;61668;45.388;11.784;2022-09-16T07:48:45;10.40;;;2.00;;
68577;SDS011;61668;45.388;11.784;2022-09-16T07:51:16;7.80;;;1.20;;
68577;SDS011;61668;45.388;11.784;2022-09-16T07:53:44;7.80;;;1.00;;
68577;SDS011;61668;45.388;11.784;2022-09-16T07:56:18;8.70;;;1.00;;
68577;SDS011;61668;45.388;11.784;2022-09-16T07:58:46;9.80;;;1.70;;
68577;SDS011;61668;45.388;11.784;2022-09-16T08:01:13;7.60;;;1.30;;
68577;SDS011;61668;45.388;11.784;2022-09-16T08:03:40;7.60;;;1.00;;
68577;SDS011;61668;45.388;11.784;2022-09-16T08:06:23;8.30;;;0.90;;
68577;SDS011;61668;45.388;11.784;2022-09-16T08:08:54;10.00;;;1.60;;
68577;SDS011;61668;45.388;11.784;2022-09-16T08:11:22;7.90;;;0.90;;
68577;SDS011;61668;45.388;11.784;2022-09-16T08:13:48;8.40;;;0.80;;
68577;SDS011;61668;45.388;11.784;2022-09-16T08:16:16;8.70;;;0.90;;
68577;SDS011;61668;45.388;11.784;2022-09-16T08:18:44;7.80;;;0.90;;
68577;SDS011;61668;45.388;11.784;2022-09-16T08:21:14;9.90;;;1.20;;
68577;SDS011;61668;45.388;11.784;2022-09-16T08:23:41;7.80;;;1.00;;
68577;SDS011;61668;45.388;11.784;2022-09-16T08:26:08;7.10;;;0.90;;
68577;SDS011;61668;45.388;11.784;2022-09-16T08:28:36;7.30;;;1.20;;
68577;SDS011;61668;45.388;11.784;2022-09-16T08:31:03;7.90;;;0.50;;
68577;SDS011;61668;45.388;11.784;2022-09-16T08:33:30;9.20;;;1.30;;
68577;SDS011;61668;45.388;11.784;2022-09-16T08:36:23;7.90;;;1.00;;
68577;SDS011;61668;45.388;11.784;2022-09-16T08:38:51;8.40;;;1.20;;
68577;SDS011;61668;45.388;11.784;2022-09-16T08:44:16;7.30;;;1.10;;
68577;SDS011;61668;45.388;11.784;2022-09-16T08:49:34;9.80;;;1.90;;
68577;SDS011;61668;45.388;11.784;2022-09-16T08:52:11;10.70;;;1.40;;
68577;SDS011;61668;45.388;11.784;2022-09-16T08:54:43;8.50;;;1.40;;
68577;SDS011;61668;45.388;11.784;2022-09-16T08:57:18;10.50;;;1.80;;
68577;SDS011;61668;45.388;11.784;2022-09-16T08:59:50;8.40;;;2.50;;
68577;SDS011;61668;45.388;11.784;2022-09-16T09:05:35;9.30;;;2.10;;
68577;SDS011;61668;45.388;11.784;2022-09-16T09:08:30;15.90;;;2.30;;
68577;SDS011;61668;45.388;11.784;2022-09-16T09:14:11;8.40;;;1.60;;
68577;SDS011;61668;45.388;11.784;2022-09-16T09:17:30;10.30;;;1.70;;
68577;SDS011;61668;45.388;11.784;2022-09-16T09:26:26;9.30;;;1.80;;
68577;SDS011;61668;45.388;11.784;2022-09-16T09:29:17;9.80;;;1.50;;
68577;SDS011;61668;45.388;11.784;2022-09-16T09:32:19;8.80;;;1.40;;
68577;SDS011;61668;45.388;11.784;2022-09-16T09:40:42;8.80;;;1.80;;
68577;SDS011;61668;45.388;11.784;2022-09-16T09:43:31;8.30;;;1.70;;
68577;SDS011;61668;45.388;11.784;2022-09-16T09:46:14;9.00;;;1.80;;
68577;SDS011;61668;45.388;11.784;2022-09-16T09:49:01;7.70;;;2.10;;
68577;SDS011;61668;45.388;11.784;2022-09-16T09:54:36;9.80;;;2.40;;
68577;SDS011;61668;45.388;11.784;2022-09-16T10:02:38;11.50;;;2.80;;
68577;SDS011;61668;45.388;11.784;2022-09-16T10:05:10;10.00;;;1.70;;
68577;SDS011;61668;45.388;11.784;2022-09-16T10:07:40;10.80;;;2.30;;
68577;SDS011;61668;45.388;11.784;2022-09-16T10:10:18;9.40;;;2.00;;
68577;SDS011;61668;45.388;11.784;2022-09-16T10:12:46;12.90;;;2.90;;
68577;SDS011;61668;45.388;11.784;2022-09-16T10:15:28;10.20;;;2.30;;
68577;SDS011;61668;45.388;11.784;2022-09-16T10:17:57;10.00;;;2.40;;
68577;SDS011;61668;45.388;11.784;2022-09-16T10:20:27;9.40;;;1.90;;
68577;SDS011;61668;45.388;11.784;2022-09-16T10:23:02;9.60;;;2.60;;
68577;SDS011;61668;45.388;11.784;2022-09-16T10:25:31;9.10;;;2.00;;
68577;SDS011;61668;45.388;11.784;2022-09-16T10:28:03;8.50;;;1.90;;
68577;SDS011;61668;45.388;11.784;2022-09-16T10:30:42;8.20;;;1.80;;
68577;SDS011;61668;45.388;11.784;2022-09-16T10:35:55;11.70;;;2.60;;
68577;SDS011;61668;45.388;11.784;2022-09-16T10:38:34;11.40;;;2.20;;
68577;SDS011;61668;45.388;11.784;2022-09-16T10:41:13;9.90;;;2.10;;
68577;SDS011;61668;45.388;11.784;2022-09-16T10:43:46;7.70;;;2.40;;
68577;SDS011;61668;45.388;11.784;2022-09-16T10:46:24;10.00;;;2.50;;
68577;SDS011;61668;45.388;11.784;2022-09-16T10:48:50;9.60;;;2.50;;
68577;SDS011;61668;45.388;11.784;2022-09-16T10:51:24;10.40;;;2.50;;
68577;SDS011;61668;45.388;11.784;2022-09-16T10:54:03;8.50;;;2.40;;
68577;SDS011;61668;45.388;11.784;2022-09-16T10:56:34;9.60;;;2.40;;
68577;SDS011;61668;45.388;11.784;2022-09-16T10:59:13;8.20;;;2.50;;
68577;SDS011;61668;45.388;11.784;2022-09-16T11:02:12;11.70;;;3.10;;
68577;SDS011;61668;45.388;11.784;2022-09-16T11:05:05;10.20;;;2.60;;
68577;SDS011;61668;45.388;11.784;2022-09-16T11:10:27;9.10;;;2.20;;
68577;SDS011;61668;45.388;11.784;2022-09-16T11:13:47;9.40;;;2.10;;
68577;SDS011;61668;45.388;11.784;2022-09-16T11:17:05;11.70;;;3.10;;
68577;SDS011;61668;45.388;11.784;2022-09-16T11:26:00;9.20;;;2.60;;
68577;SDS011;61668;45.388;11.784;2022-09-16T11:41:37;11.60;;;2.40;;
68577;SDS011;61668;45.388;11.784;2022-09-16T11:50:02;10.90;;;2.20;;
68577;SDS011;61668;45.388;11.784;2022-09-16T11:53:30;8.60;;;2.00;;
68577;SDS011;61668;45.388;11.784;2022-09-16T11:58:29;8.70;;;2.80;;
68577;SDS011;61668;45.388;11.784;2022-09-16T12:00:59;12.10;;;2.90;;
68577;SDS011;61668;45.388;11.784;2022-09-16T12:07:05;8.60;;;2.40;;
68577;SDS011;61668;45.388;11.784;2022-09-16T12:12:31;7.50;;;2.00;;
68577;SDS011;61668;45.388;11.784;2022-09-16T12:15:16;9.40;;;2.10;;
68577;SDS011;61668;45.388;11.784;2022-09-16T12:18:18;10.00;;;2.30;;
68577;SDS011;61668;45.388;11.784;2022-09-16T12:30:15;8.00;;;2.20;;
68577;SDS011;61668;45.388;11.784;2022-09-16T12:35:40;8.30;;;2.60;;
68577;SDS011;61668;45.388;11.784;2022-09-16T12:38:18;9.00;;;2.40;;
68577;SDS011;61668;45.388;11.784;2022-09-16T13:01:21;10.70;;;2.40;;
68577;SDS011;61668;45.388;11.784;2022-09-16T13:03:58;10.50;;;2.50;;
68577;SDS011;61668;45.388;11.784;2022-09-16T13:06:31;10.80;;;2.20;;
68577;SDS011;61668;45.388;11.784;2022-09-16T13:09:34;12.00;;;3.20;;
68577;SDS011;61668;45.388;11.784;2022-09-16T13:12:05;11.30;;;2.90;;
68577;SDS011;61668;45.388;11.784;2022-09-16T13:17:32;11.50;;;2.60;;
68577;SDS011;61668;45.388;11.784;2022-09-16T13:20:27;9.20;;;2.10;;
68577;SDS011;61668;45.388;11.784;2022-09-16T13:23:27;10.40;;;2.10;;
68577;SDS011;61668;45.388;11.784;2022-09-16T13:26:00;8.90;;;2.00;;
68577;SDS011;61668;45.388;11.784;2022-09-16T13:38:56;10.00;;;2.20;;
68577;SDS011;61668;45.388;11.784;2022-09-16T13:41:45;8.80;;;1.90;;
68577;SDS011;61668;45.388;11.784;2022-09-16T13:52:30;9.90;;;2.10;;
68577;SDS011;61668;45.388;11.784;2022-09-16T13:55:05;9.90;;;2.90;;
68577;SDS011;61668;45.388;11.784;2022-09-16T13:57:54;12.10;;;2.30;;
68577;SDS011;61668;45.388;11.784;2022-09-16T14:03:45;10.10;;;1.60;;
68577;SDS011;61668;45.388;11.784;2022-09-16T14:09:45;12.70;;;2.90;;
68577;SDS011;61668;45.388;11.784;2022-09-16T14:15:22;5.60;;;0.50;;
68577;SDS011;61668;45.388;11.784;2022-09-16T14:17:52;6.50;;;0.70;;
68577;SDS011;61668;45.388;11.784;2022-09-16T14:20:22;5.20;;;0.70;;
68577;SDS011;61668;45.388;11.784;2022-09-16T14:23:02;4.60;;;0.40;;
68577;SDS011;61668;45.388;11.784;2022-09-16T14:25:39;4.10;;;0.40;;
68577;SDS011;61668;45.388;11.784;2022-09-16T14:28:07;5.90;;;0.50;;
68577;SDS011;61668;45.388;11.784;2022-09-16T14:30:58;6.60;;;0.60;;
68577;SDS011;61668;45.388;11.784;2022-09-16T14:33:35;5.20;;;0.90;;
68577;SDS011;61668;45.388;11.784;2022-09-16T14:36:31;7.40;;;1.10;;
68577;SDS011;61668;45.388;11.784;2022-09-16T14:39:01;6.90;;;1.00;;
68577;SDS011;61668;45.388;11.784;2022-09-16T14:46:53;8.70;;;2.50;;
68577;SDS011;61668;45.388;11.784;2022-09-16T14:49:21;8.00;;;2.30;;
68577;SDS011;61668;45.388;11.784;2022-09-16T14:51:56;7.70;;;2.30;;
68577;SDS011;61668;45.388;11.784;2022-09-16T14:54:25;9.90;;;3.50;;
68577;SDS011;61668;45.388;11.784;2022-09-16T14:59:35;10.30;;;3.80;;
68577;SDS011;61668;45.388;11.784;2022-09-16T15:02:32;10.50;;;2.90;;
68577;SDS011;61668;45.388;11.784;2022-09-16T15:07:35;9.30;;;2.70;;
68577;SDS011;61668;45.388;11.784;2022-09-16T15:10:28;9.20;;;4.00;;
68577;SDS011;61668;45.388;11.784;2022-09-16T15:13:04;11.10;;;4.10;;
68577;SDS011;61668;45.388;11.784;2022-09-16T15:15:36;13.10;;;3.90;;
68577;SDS011;61668;45.388;11.784;2022-09-16T15:18:04;12.80;;;4.30;;
68577;SDS011;61668;45.388;11.784;2022-09-16T15:20:35;10.50;;;4.60;;
68577;SDS011;61668;45.388;11.784;2022-09-16T15:23:04;13.10;;;4.20;;
68577;SDS011;61668;45.388;11.784;2022-09-16T15:25:32;11.70;;;4.30;;
68577;SDS011;61668;45.388;11.784;2022-09-16T15:28:06;13.60;;;4.20;;
68577;SDS011;61668;45.388;11.784;2022-09-16T15:30:52;12.60;;;4.70;;
68577;SDS011;61668;45.388;11.784;2022-09-16T15:33:34;12.20;;;4.00;;
68577;SDS011;61668;45.388;11.784;2022-09-16T15:36:01;13.30;;;4.90;;
68577;SDS011;61668;45.388;11.784;2022-09-16T15:38:28;15.90;;;4.90;;
68577;SDS011;61668;45.388;11.784;2022-09-16T15:41:10;12.60;;;5.00;;
68577;SDS011;61668;45.388;11.784;2022-09-16T15:43:42;13.00;;;4.50;;
68577;SDS011;61668;45.388;11.784;2022-09-16T15:46:15;11.30;;;4.00;;
68577;SDS011;61668;45.388;11.784;2022-09-16T15:48:47;12.20;;;4.20;;
68577;SDS011;61668;45.388;11.784;2022-09-16T15:51:32;10.90;;;3.70;;
68577;SDS011;61668;45.388;11.784;2022-09-16T15:59:37;8.40;;;2.50;;
68577;SDS011;61668;45.388;11.784;2022-09-16T16:03:03;10.70;;;3.20;;
68577;SDS011;61668;45.388;11.784;2022-09-16T16:05:15;9.20;;;2.30;;
68577;SDS011;61668;45.388;11.784;2022-09-16T16:07:46;7.60;;;1.70;;
68577;SDS011;61668;45.388;11.784;2022-09-16T16:12:49;11.20;;;2.80;;
68577;SDS011;61668;45.388;11.784;2022-09-16T16:15:36;10.80;;;2.60;;
68577;SDS011;61668;45.388;11.784;2022-09-16T16:18:05;12.20;;;3.20;;
68577;SDS011;61668;45.388;11.784;2022-09-16T16:20:32;10.80;;;2.30;;
68577;SDS011;61668;45.388;11.784;2022-09-16T16:23:00;10.50;;;2.50;;
68577;SDS011;61668;45.388;11.784;2022-09-16T16:25:26;9.00;;;2.70;;
68577;SDS011;61668;45.388;11.784;2022-09-16T16:27:52;12.50;;;3.00;;
68577;SDS011;61668;45.388;11.784;2022-09-16T16:30:18;9.80;;;2.50;;
68577;SDS011;61668;45.388;11.784;2022-09-16T16:32:44;12.30;;;2.30;;
68577;SDS011;61668;45.388;11.784;2022-09-16T16:35:11;11.50;;;2.90;;
68577;SDS011;61668;45.388;11.784;2022-09-16T16:37:37;10.70;;;2.50;;
68577;SDS011;61668;45.388;11.784;2022-09-16T16:40:04;9.00;;;2.00;;
68577;SDS011;61668;45.388;11.784;2022-09-16T16:42:30;9.20;;;1.80;;
68577;SDS011;61668;45.388;11.784;2022-09-16T16:44:56;10.30;;;2.00;;
68577;SDS011;61668;45.388;11.784;2022-09-16T16:47:22;8.10;;;2.70;;
68577;SDS011;61668;45.388;11.784;2022-09-16T16:49:48;11.30;;;3.00;;
68577;SDS011;61668;45.388;11.784;2022-09-16T16:52:15;8.30;;;2.20;;
68577;SDS011;61668;45.388;11.784;2022-09-16T16:54:41;9.40;;;2.70;;
68577;SDS011;61668;45.388;11.784;2022-09-16T16:57:08;9.50;;;2.00;;
68577;SDS011;61668;45.388;11.784;2022-09-16T16:59:35;9.90;;;1.90;;
68577;SDS011;61668;45.388;11.784;2022-09-16T17:02:00;7.90;;;2.20;;
68577;SDS011;61668;45.388;11.784;2022-09-16T17:04:28;11.50;;;2.30;;
68577;SDS011;61668;45.388;11.784;2022-09-16T17:06:53;8.70;;;2.70;;
68577;SDS011;61668;45.388;11.784;2022-09-16T17:09:19;8.40;;;2.40;;
68577;SDS011;61668;45.388;11.784;2022-09-16T17:11:56;9.80;;;2.80;;
68577;SDS011;61668;45.388;11.784;2022-09-16T17:14:25;8.90;;;2.10;;
68577;SDS011;61668;45.388;11.784;2022-09-16T17:16:53;7.60;;;2.00;;
68577;SDS011;61668;45.388;11.784;2022-09-16T17:19:22;9.20;;;2.10;;
68577;SDS011;61668;45.388;11.784;2022-09-16T17:21:49;8.90;;;2.30;;
68577;SDS011;61668;45.388;11.784;2022-09-16T17:24:16;10.50;;;2.60;;
68577;SDS011;61668;45.388;11.784;2022-09-16T17:26:43;9.90;;;2.80;;
68577;SDS011;61668;45.388;11.784;2022-09-16T17:29:09;12.80;;;2.70;;
68577;SDS011;61668;45.388;11.784;2022-09-16T17:31:35;11.10;;;2.40;;
68577;SDS011;61668;45.388;11.784;2022-09-16T17:34:05;8.70;;;2.20;;
68577;SDS011;61668;45.388;11.784;2022-09-16T17:36:36;12.10;;;2.50;;
68577;SDS011;61668;45.388;11.784;2022-09-16T17:39:12;8.20;;;2.10;;
68577;SDS011;61668;45.388;11.784;2022-09-16T17:41:40;12.20;;;2.90;;
68577;SDS011;61668;45.388;11.784;2022-09-16T17:44:10;16.60;;;4.10;;
68577;SDS011;61668;45.388;11.784;2022-09-16T17:46:37;9.40;;;2.30;;
68577;SDS011;61668;45.388;11.784;2022-09-16T17:49:06;11.00;;;2.40;;
68577;SDS011;61668;45.388;11.784;2022-09-16T17:51:37;11.30;;;4.30;;
68577;SDS011;61668;45.388;11.784;2022-09-16T17:54:02;10.00;;;3.30;;
68577;SDS011;61668;45.388;11.784;2022-09-16T17:56:28;11.90;;;3.00;;
68577;SDS011;61668;45.388;11.784;2022-09-16T17:58:54;11.30;;;2.60;;
68577;SDS011;61668;45.388;11.784;2022-09-16T18:01:22;13.10;;;3.60;;
68577;SDS011;61668;45.388;11.784;2022-09-16T18:03:50;11.60;;;3.00;;
68577;SDS011;61668;45.388;11.784;2022-09-16T18:06:22;12.10;;;3.40;;
68577;SDS011;61668;45.388;11.784;2022-09-16T18:08:59;9.50;;;2.50;;
68577;SDS011;61668;45.388;11.784;2022-09-16T18:11:25;12.60;;;3.50;;
68577;SDS011;61668;45.388;11.784;2022-09-16T18:14:00;9.30;;;2.90;;
68577;SDS011;61668;45.388;11.784;2022-09-16T18:16:27;11.10;;;2.50;;
68577;SDS011;61668;45.388;11.784;2022-09-16T18:18:56;9.80;;;3.00;;
68577;SDS011;61668;45.388;11.784;2022-09-16T18:21:24;9.10;;;3.30;;
68577;SDS011;61668;45.388;11.784;2022-09-16T18:23:58;10.80;;;3.50;;
68577;SDS011;61668;45.388;11.784;2022-09-16T18:26:28;13.00;;;3.40;;
68577;SDS011;61668;45.388;11.784;2022-09-16T18:28:55;10.40;;;3.30;;
68577;SDS011;61668;45.388;11.784;2022-09-16T18:31:23;11.70;;;3.50;;
68577;SDS011;61668;45.388;11.784;2022-09-16T18:33:50;9.80;;;3.10;;